sensor_id;sensor_type;location;lat;lon;timestamp;temperature;humidity
21355;DHT22;10835;50.148;19.760;2023-03-23T00:00:19;20.40;49.40
21355;DHT22;10835;50.148;19.760;2023-03-23T00:02:47;20.20;50.10
21355;DHT22;10835;50.148;19.760;2023-03-23T00:05:14;19.90;50.60
21355;DHT22;10835;50.148;19.760;2023-03-23T00:07:43;20.20;50.70
21355;DHT22;10835;50.148;19.760;2023-03-23T00:10:11;19.70;50.70
21355;DHT22;10835;50.148;19.760;2023-03-23T00:12:38;19.70;51.30
21355;DHT22;10835;50.148;19.760;2023-03-23T00:15:08;19.50;51.60
21355;DHT22;10835;50.148;19.760;2023-03-23T00:17:40;19.60;51.80
21355;DHT22;10835;50.148;19.760;2023-03-23T00:20:09;19.50;51.70
21355;DHT22;10835;50.148;19.760;2023-03-23T00:22:38;19.60;51.40
21355;DHT22;10835;50.148;19.760;2023-03-23T00:25:07;19.50;51.60
21355;DHT22;10835;50.148;19.760;2023-03-23T00:27:35;19.20;52.00
21355;DHT22;10835;50.148;19.760;2023-03-23T00:30:02;19.50;52.10
21355;DHT22;10835;50.148;19.760;2023-03-23T00:32:30;19.50;51.50
21355;DHT22;10835;50.148;19.760;2023-03-23T00:34:58;20.00;51.00
21355;DHT22;10835;50.148;19.760;2023-03-23T00:37:26;19.80;51.20
21355;DHT22;10835;50.148;19.760;2023-03-23T00:39:53;19.90;51.40
21355;DHT22;10835;50.148;19.760;2023-03-23T00:42:23;19.50;51.00
21355;DHT22;10835;50.148;19.760;2023-03-23T00:44:50;20.10;51.60
21355;DHT22;10835;50.148;19.760;2023-03-23T00:47:19;19.80;51.10
21355;DHT22;10835;50.148;19.760;2023-03-23T00:49:46;19.50;51.60
21355;DHT22;10835;50.148;19.760;2023-03-23T00:52:15;19.60;51.80
21355;DHT22;10835;50.148;19.760;2023-03-23T00:54:42;19.60;51.10
21355;DHT22;10835;50.148;19.760;2023-03-23T00:57:09;20.20;51.50
21355;DHT22;10835;50.148;19.760;2023-03-23T00:59:37;19.80;50.80
21355;DHT22;10835;50.148;19.760;2023-03-23T01:02:04;20.40;50.10
21355;DHT22;10835;50.148;19.760;2023-03-23T01:04:31;20.20;50.70
21355;DHT22;10835;50.148;19.760;2023-03-23T01:07:02;20.30;50.10
21355;DHT22;10835;50.148;19.760;2023-03-23T01:09:32;20.60;50.10
21355;DHT22;10835;50.148;19.760;2023-03-23T01:11:59;19.90;50.10
21355;DHT22;10835;50.148;19.760;2023-03-23T01:14:27;20.00;50.50
21355;DHT22;10835;50.148;19.760;2023-03-23T01:16:54;19.90;51.10
21355;DHT22;10835;50.148;19.760;2023-03-23T01:19:23;20.00;50.30
21355;DHT22;10835;50.148;19.760;2023-03-23T01:21:50;20.20;50.80
21355;DHT22;10835;50.148;19.760;2023-03-23T01:24:17;19.70;50.80
21355;DHT22;10835;50.148;19.760;2023-03-23T01:26:47;20.00;50.50
21355;DHT22;10835;50.148;19.760;2023-03-23T01:29:14;19.80;50.60
21355;DHT22;10835;50.148;19.760;2023-03-23T01:31:41;20.00;51.40
21355;DHT22;10835;50.148;19.760;2023-03-23T01:34:10;19.70;50.70
21355;DHT22;10835;50.148;19.760;2023-03-23T01:36:38;19.50;51.00
21355;DHT22;10835;50.148;19.760;2023-03-23T01:39:06;19.60;51.60
21355;DHT22;10835;50.148;19.760;2023-03-23T01:41:34;19.40;51.50
21355;DHT22;10835;50.148;19.760;2023-03-23T01:47:15;19.50;51.80
21355;DHT22;10835;50.148;19.760;2023-03-23T01:49:46;19.60;52.00
21355;DHT22;10835;50.148;19.760;2023-03-23T01:52:17;19.40;52.20
21355;DHT22;10835;50.148;19.760;2023-03-23T01:54:49;19.30;51.90
21355;DHT22;10835;50.148;19.760;2023-03-23T01:57:19;19.60;51.90
21355;DHT22;10835;50.148;19.760;2023-03-23T01:59:52;19.70;51.50
21355;DHT22;10835;50.148;19.760;2023-03-23T02:02:24;19.60;51.30
21355;DHT22;10835;50.148;19.760;2023-03-23T02:04:58;19.70;51.60
21355;DHT22;10835;50.148;19.760;2023-03-23T02:07:31;20.20;51.40
21355;DHT22;10835;50.148;19.760;2023-03-23T02:10:00;20.50;50.80
21355;DHT22;10835;50.148;19.760;2023-03-23T02:12:32;20.90;49.90
21355;DHT22;10835;50.148;19.760;2023-03-23T02:15:01;21.20;49.00
21355;DHT22;10835;50.148;19.760;2023-03-23T02:17:35;21.50;48.30
21355;DHT22;10835;50.148;19.760;2023-03-23T02:20:29;21.90;47.50
21355;DHT22;10835;50.148;19.760;2023-03-23T02:23:29;22.10;46.40
21355;DHT22;10835;50.148;19.760;2023-03-23T02:26:07;22.10;46.30
21355;DHT22;10835;50.148;19.760;2023-03-23T02:31:47;22.50;45.50
21355;DHT22;10835;50.148;19.760;2023-03-23T02:34:27;22.10;46.20
21355;DHT22;10835;50.148;19.760;2023-03-23T02:36:59;21.90;46.40
21355;DHT22;10835;50.148;19.760;2023-03-23T02:39:31;21.50;46.90
21355;DHT22;10835;50.148;19.760;2023-03-23T02:42:04;21.20;47.40
21355;DHT22;10835;50.148;19.760;2023-03-23T02:44:33;21.50;47.40
21355;DHT22;10835;50.148;19.760;2023-03-23T02:47:04;21.60;47.30
21355;DHT22;10835;50.148;19.760;2023-03-23T02:49:36;21.10;47.40
21355;DHT22;10835;50.148;19.760;2023-03-23T02:52:08;21.20;47.90
21355;DHT22;10835;50.148;19.760;2023-03-23T02:54:39;21.30;48.00
21355;DHT22;10835;50.148;19.760;2023-03-23T02:57:07;21.00;47.80
21355;DHT22;10835;50.148;19.760;2023-03-23T02:59:39;21.00;48.30
21355;DHT22;10835;50.148;19.760;2023-03-23T03:02:10;21.10;48.90
21355;DHT22;10835;50.148;19.760;2023-03-23T03:04:42;21.10;48.40
21355;DHT22;10835;50.148;19.760;2023-03-23T03:07:23;21.40;48.10
21355;DHT22;10835;50.148;19.760;2023-03-23T03:09:56;21.50;47.60
21355;DHT22;10835;50.148;19.760;2023-03-23T03:12:32;21.80;47.00
21355;DHT22;10835;50.148;19.760;2023-03-23T03:15:09;22.00;46.80
21355;DHT22;10835;50.148;19.760;2023-03-23T03:17:41;21.80;46.60
21355;DHT22;10835;50.148;19.760;2023-03-23T03:20:12;20.90;47.10
21355;DHT22;10835;50.148;19.760;2023-03-23T03:22:43;20.60;48.20
21355;DHT22;10835;50.148;19.760;2023-03-23T03:25:13;20.70;48.60
21355;DHT22;10835;50.148;19.760;2023-03-23T03:27:44;20.40;48.70
21355;DHT22;10835;50.148;19.760;2023-03-23T03:30:25;20.80;49.00
21355;DHT22;10835;50.148;19.760;2023-03-23T03:32:54;20.60;48.70
21355;DHT22;10835;50.148;19.760;2023-03-23T03:35:24;20.30;49.00
21355;DHT22;10835;50.148;19.760;2023-03-23T03:37:53;20.30;49.40
21355;DHT22;10835;50.148;19.760;2023-03-23T03:40:22;20.40;49.30
21355;DHT22;10835;50.148;19.760;2023-03-23T03:42:50;20.60;49.20
21355;DHT22;10835;50.148;19.760;2023-03-23T03:45:18;20.40;49.10
21355;DHT22;10835;50.148;19.760;2023-03-23T03:47:46;20.30;49.50
21355;DHT22;10835;50.148;19.760;2023-03-23T03:50:16;20.40;49.80
21355;DHT22;10835;50.148;19.760;2023-03-23T03:52:44;20.40;49.40
21355;DHT22;10835;50.148;19.760;2023-03-23T03:55:12;20.20;49.40
21355;DHT22;10835;50.148;19.760;2023-03-23T03:57:43;20.80;49.10
21355;DHT22;10835;50.148;19.760;2023-03-23T04:00:21;21.20;47.90
21355;DHT22;10835;50.148;19.760;2023-03-23T04:02:50;21.50;47.10
21355;DHT22;10835;50.148;19.760;2023-03-23T04:05:31;21.80;46.80
21355;DHT22;10835;50.148;19.760;2023-03-23T04:08:00;22.00;45.90
21355;DHT22;10835;50.148;19.760;2023-03-23T04:10:31;22.20;45.70
21355;DHT22;10835;50.148;19.760;2023-03-23T04:13:00;22.20;45.80
21355;DHT22;10835;50.148;19.760;2023-03-23T04:15:46;22.20;45.60
21355;DHT22;10835;50.148;19.760;2023-03-23T04:18:15;22.20;45.80
21355;DHT22;10835;50.148;19.760;2023-03-23T04:20:46;22.20;45.60
21355;DHT22;10835;50.148;19.760;2023-03-23T04:23:18;22.20;45.20
21355;DHT22;10835;50.148;19.760;2023-03-23T04:25:47;21.20;46.40
21355;DHT22;10835;50.148;19.760;2023-03-23T04:28:15;21.20;47.30
21355;DHT22;10835;50.148;19.760;2023-03-23T04:31:00;20.80;47.90
21355;DHT22;10835;50.148;19.760;2023-03-23T04:33:28;20.50;48.70
21355;DHT22;10835;50.148;19.760;2023-03-23T04:36:00;20.90;48.50
21355;DHT22;10835;50.148;19.760;2023-03-23T04:38:40;20.50;48.80
21355;DHT22;10835;50.148;19.760;2023-03-23T04:41:16;20.40;48.80
21355;DHT22;10835;50.148;19.760;2023-03-23T04:43:55;20.30;49.40
21355;DHT22;10835;50.148;19.760;2023-03-23T04:46:34;19.90;49.80
21355;DHT22;10835;50.148;19.760;2023-03-23T04:49:07;20.10;50.00
21355;DHT22;10835;50.148;19.760;2023-03-23T04:51:37;20.00;50.00
21355;DHT22;10835;50.148;19.760;2023-03-23T04:54:18;20.00;50.20
21355;DHT22;10835;50.148;19.760;2023-03-23T04:56:49;20.40;50.00
21355;DHT22;10835;50.148;19.760;2023-03-23T04:59:17;21.00;50.00
21355;DHT22;10835;50.148;19.760;2023-03-23T05:01:54;21.30;48.20
21355;DHT22;10835;50.148;19.760;2023-03-23T05:04:23;21.60;47.20
21355;DHT22;10835;50.148;19.760;2023-03-23T05:07:13;21.80;46.60
21355;DHT22;10835;50.148;19.760;2023-03-23T05:09:48;21.80;46.80
21355;DHT22;10835;50.148;19.760;2023-03-23T05:12:20;22.00;46.80
21355;DHT22;10835;50.148;19.760;2023-03-23T05:14:52;21.70;46.50
21355;DHT22;10835;50.148;19.760;2023-03-23T05:17:24;21.50;47.40
21355;DHT22;10835;50.148;19.760;2023-03-23T05:19:54;21.80;46.90
21355;DHT22;10835;50.148;19.760;2023-03-23T05:22:42;21.50;46.70
21355;DHT22;10835;50.148;19.760;2023-03-23T05:25:15;21.40;47.50
21355;DHT22;10835;50.148;19.760;2023-03-23T05:27:50;21.40;48.10
21355;DHT22;10835;50.148;19.760;2023-03-23T05:30:39;21.60;48.00
21355;DHT22;10835;50.148;19.760;2023-03-23T05:33:08;21.50;48.20
21355;DHT22;10835;50.148;19.760;2023-03-23T05:35:58;21.30;48.00
21355;DHT22;10835;50.148;19.760;2023-03-23T05:38:32;21.20;48.80
21355;DHT22;10835;50.148;19.760;2023-03-23T05:41:01;21.40;49.10
21355;DHT22;10835;50.148;19.760;2023-03-23T05:43:36;21.90;48.40
21355;DHT22;10835;50.148;19.760;2023-03-23T05:46:26;21.90;48.00
21355;DHT22;10835;50.148;19.760;2023-03-23T05:48:58;21.60;48.50
21355;DHT22;10835;50.148;19.760;2023-03-23T05:51:32;21.50;49.30
21355;DHT22;10835;50.148;19.760;2023-03-23T05:53:59;22.20;49.20
21355;DHT22;10835;50.148;19.760;2023-03-23T05:56:28;22.70;48.80
21355;DHT22;10835;50.148;19.760;2023-03-23T05:59:15;23.10;47.90
21355;DHT22;10835;50.148;19.760;2023-03-23T06:01:48;23.10;47.60
21355;DHT22;10835;50.148;19.760;2023-03-23T06:04:19;23.40;47.80
21355;DHT22;10835;50.148;19.760;2023-03-23T06:07:02;23.40;47.80
21355;DHT22;10835;50.148;19.760;2023-03-23T06:09:30;23.70;47.80
21355;DHT22;10835;50.148;19.760;2023-03-23T06:12:21;24.10;47.50
21355;DHT22;10835;50.148;19.760;2023-03-23T06:15:09;24.40;46.50
21355;DHT22;10835;50.148;19.760;2023-03-23T06:17:58;24.80;47.00
21355;DHT22;10835;50.148;19.760;2023-03-23T06:20:30;25.10;45.60
21355;DHT22;10835;50.148;19.760;2023-03-23T06:23:01;25.40;45.70
21355;DHT22;10835;50.148;19.760;2023-03-23T06:25:32;25.50;45.10
21355;DHT22;10835;50.148;19.760;2023-03-23T06:28:00;25.70;45.20
21355;DHT22;10835;50.148;19.760;2023-03-23T06:30:30;25.90;43.50
21355;DHT22;10835;50.148;19.760;2023-03-23T06:32:58;26.10;45.10
21355;DHT22;10835;50.148;19.760;2023-03-23T06:35:45;26.30;44.90
21355;DHT22;10835;50.148;19.760;2023-03-23T06:38:30;26.40;45.30
21355;DHT22;10835;50.148;19.760;2023-03-23T06:40:58;26.50;44.80
21355;DHT22;10835;50.148;19.760;2023-03-23T06:43:28;26.60;44.40
21355;DHT22;10835;50.148;19.760;2023-03-23T06:46:08;26.70;44.60
21355;DHT22;10835;50.148;19.760;2023-03-23T06:48:41;26.80;43.70
21355;DHT22;10835;50.148;19.760;2023-03-23T06:51:12;26.90;44.60
21355;DHT22;10835;50.148;19.760;2023-03-23T06:53:42;27.00;44.00
21355;DHT22;10835;50.148;19.760;2023-03-23T06:56:14;27.10;43.70
21355;DHT22;10835;50.148;19.760;2023-03-23T06:58:44;27.20;43.70
21355;DHT22;10835;50.148;19.760;2023-03-23T07:01:12;27.20;44.30
21355;DHT22;10835;50.148;19.760;2023-03-23T07:03:48;27.40;43.80
21355;DHT22;10835;50.148;19.760;2023-03-23T07:06:21;27.50;43.50
21355;DHT22;10835;50.148;19.760;2023-03-23T07:08:54;27.60;42.80
21355;DHT22;10835;50.148;19.760;2023-03-23T07:11:25;27.80;42.20
21355;DHT22;10835;50.148;19.760;2023-03-23T07:13:57;27.90;42.60
21355;DHT22;10835;50.148;19.760;2023-03-23T07:16:25;27.90;41.80
21355;DHT22;10835;50.148;19.760;2023-03-23T07:18:53;28.00;41.80
21355;DHT22;10835;50.148;19.760;2023-03-23T07:21:20;28.10;41.50
21355;DHT22;10835;50.148;19.760;2023-03-23T07:23:48;27.60;41.20
21355;DHT22;10835;50.148;19.760;2023-03-23T07:26:25;27.00;40.60
21355;DHT22;10835;50.148;19.760;2023-03-23T07:28:56;27.10;39.30
21355;DHT22;10835;50.148;19.760;2023-03-23T07:31:30;27.50;39.60
21355;DHT22;10835;50.148;19.760;2023-03-23T07:33:58;27.10;40.40
21355;DHT22;10835;50.148;19.760;2023-03-23T07:36:37;27.40;40.90
21355;DHT22;10835;50.148;19.760;2023-03-23T07:39:06;27.30;40.10
21355;DHT22;10835;50.148;19.760;2023-03-23T07:41:34;27.10;40.80
21355;DHT22;10835;50.148;19.760;2023-03-23T07:44:15;27.20;40.70
21355;DHT22;10835;50.148;19.760;2023-03-23T07:46:45;26.40;39.90
21355;DHT22;10835;50.148;19.760;2023-03-23T07:49:15;26.10;40.90
21355;DHT22;10835;50.148;19.760;2023-03-23T07:51:50;26.20;42.00
21355;DHT22;10835;50.148;19.760;2023-03-23T07:54:17;26.20;41.80
21355;DHT22;10835;50.148;19.760;2023-03-23T07:57:16;26.20;41.10
21355;DHT22;10835;50.148;19.760;2023-03-23T07:59:51;26.10;42.20
21355;DHT22;10835;50.148;19.760;2023-03-23T08:02:19;25.80;41.70
21355;DHT22;10835;50.148;19.760;2023-03-23T08:05:07;25.70;41.00
21355;DHT22;10835;50.148;19.760;2023-03-23T08:08:10;25.50;42.00
21355;DHT22;10835;50.148;19.760;2023-03-23T08:10:59;25.70;42.40
21355;DHT22;10835;50.148;19.760;2023-03-23T08:13:42;26.20;40.80
21355;DHT22;10835;50.148;19.760;2023-03-23T08:16:21;25.80;41.30
21355;DHT22;10835;50.148;19.760;2023-03-23T08:19:06;25.80;41.40
21355;DHT22;10835;50.148;19.760;2023-03-23T08:21:45;26.10;41.60
21355;DHT22;10835;50.148;19.760;2023-03-23T08:24:36;26.90;41.10
21355;DHT22;10835;50.148;19.760;2023-03-23T08:27:16;26.70;40.70
21355;DHT22;10835;50.148;19.760;2023-03-23T08:30:08;26.20;41.30
21355;DHT22;10835;50.148;19.760;2023-03-23T08:33:02;26.90;41.20
21355;DHT22;10835;50.148;19.760;2023-03-23T08:36:00;26.40;40.80
21355;DHT22;10835;50.148;19.760;2023-03-23T08:38:50;26.30;41.80
21355;DHT22;10835;50.148;19.760;2023-03-23T08:41:37;26.40;41.10
21355;DHT22;10835;50.148;19.760;2023-03-23T08:44:24;26.80;40.80
21355;DHT22;10835;50.148;19.760;2023-03-23T08:47:00;26.50;41.10
21355;DHT22;10835;50.148;19.760;2023-03-23T08:50:03;26.20;40.30
21355;DHT22;10835;50.148;19.760;2023-03-23T08:52:49;26.10;41.10
21355;DHT22;10835;50.148;19.760;2023-03-23T08:55:32;25.90;41.60
21355;DHT22;10835;50.148;19.760;2023-03-23T08:58:13;26.00;40.90
21355;DHT22;10835;50.148;19.760;2023-03-23T09:01:09;25.80;41.60
21355;DHT22;10835;50.148;19.760;2023-03-23T09:03:42;25.80;41.20
21355;DHT22;10835;50.148;19.760;2023-03-23T09:06:25;25.80;41.50
21355;DHT22;10835;50.148;19.760;2023-03-23T09:08:53;25.70;41.60
21355;DHT22;10835;50.148;19.760;2023-03-23T09:11:21;26.10;42.00
21355;DHT22;10835;50.148;19.760;2023-03-23T09:13:49;26.40;42.00
21355;DHT22;10835;50.148;19.760;2023-03-23T09:16:18;27.10;39.00
21355;DHT22;10835;50.148;19.760;2023-03-23T09:18:45;27.50;40.20
21355;DHT22;10835;50.148;19.760;2023-03-23T09:21:13;27.60;39.60
21355;DHT22;10835;50.148;19.760;2023-03-23T09:23:41;27.80;39.50
21355;DHT22;10835;50.148;19.760;2023-03-23T09:26:10;27.80;39.00
21355;DHT22;10835;50.148;19.760;2023-03-23T09:28:37;27.60;37.00
21355;DHT22;10835;50.148;19.760;2023-03-23T09:31:05;27.20;38.00
21355;DHT22;10835;50.148;19.760;2023-03-23T09:33:32;27.50;37.90
21355;DHT22;10835;50.148;19.760;2023-03-23T09:36:02;27.40;37.40
21355;DHT22;10835;50.148;19.760;2023-03-23T09:38:30;27.30;38.60
21355;DHT22;10835;50.148;19.760;2023-03-23T09:41:22;27.40;38.60
21355;DHT22;10835;50.148;19.760;2023-03-23T09:43:59;27.40;38.50
21355;DHT22;10835;50.148;19.760;2023-03-23T09:46:44;27.40;37.40
21355;DHT22;10835;50.148;19.760;2023-03-23T09:49:17;27.20;38.70
21355;DHT22;10835;50.148;19.760;2023-03-23T09:51:49;27.00;36.90
21355;DHT22;10835;50.148;19.760;2023-03-23T09:54:20;26.70;37.50
21355;DHT22;10835;50.148;19.760;2023-03-23T09:56:50;26.70;37.70
21355;DHT22;10835;50.148;19.760;2023-03-23T09:59:25;26.50;37.30
21355;DHT22;10835;50.148;19.760;2023-03-23T10:01:58;26.90;37.70
21355;DHT22;10835;50.148;19.760;2023-03-23T10:04:32;26.90;37.20
21355;DHT22;10835;50.148;19.760;2023-03-23T10:07:09;27.30;38.40
21355;DHT22;10835;50.148;19.760;2023-03-23T10:09:37;27.70;37.00
21355;DHT22;10835;50.148;19.760;2023-03-23T10:12:12;27.30;35.70
21355;DHT22;10835;50.148;19.760;2023-03-23T10:14:55;27.10;36.60
21355;DHT22;10835;50.148;19.760;2023-03-23T10:17:29;27.10;36.60
21355;DHT22;10835;50.148;19.760;2023-03-23T10:20:25;27.40;37.40
21355;DHT22;10835;50.148;19.760;2023-03-23T10:23:02;27.40;36.30
21355;DHT22;10835;50.148;19.760;2023-03-23T10:25:34;28.00;36.40
21355;DHT22;10835;50.148;19.760;2023-03-23T10:28:08;27.70;35.50
21355;DHT22;10835;50.148;19.760;2023-03-23T10:30:40;27.70;36.60
21355;DHT22;10835;50.148;19.760;2023-03-23T10:33:13;27.60;36.00
21355;DHT22;10835;50.148;19.760;2023-03-23T10:35:47;27.90;36.70
21355;DHT22;10835;50.148;19.760;2023-03-23T10:38:20;27.70;35.00
21355;DHT22;10835;50.148;19.760;2023-03-23T10:40:52;27.00;35.40
21355;DHT22;10835;50.148;19.760;2023-03-23T10:43:23;26.50;36.20
21355;DHT22;10835;50.148;19.760;2023-03-23T10:45:56;26.80;38.30
21355;DHT22;10835;50.148;19.760;2023-03-23T10:48:28;27.10;38.20
21355;DHT22;10835;50.148;19.760;2023-03-23T10:51:00;27.00;36.20
21355;DHT22;10835;50.148;19.760;2023-03-23T10:53:31;27.10;37.00
21355;DHT22;10835;50.148;19.760;2023-03-23T10:55:59;27.00;36.10
21355;DHT22;10835;50.148;19.760;2023-03-23T10:58:30;26.80;36.10
21355;DHT22;10835;50.148;19.760;2023-03-23T11:00:58;26.90;36.80
21355;DHT22;10835;50.148;19.760;2023-03-23T11:03:37;26.90;35.80
21355;DHT22;10835;50.148;19.760;2023-03-23T11:06:06;27.00;36.70
21355;DHT22;10835;50.148;19.760;2023-03-23T11:08:37;26.90;37.50
21355;DHT22;10835;50.148;19.760;2023-03-23T11:11:11;27.30;36.00
21355;DHT22;10835;50.148;19.760;2023-03-23T11:13:44;26.70;34.60
21355;DHT22;10835;50.148;19.760;2023-03-23T11:16:23;26.50;35.80
21355;DHT22;10835;50.148;19.760;2023-03-23T11:18:50;26.50;36.20
21355;DHT22;10835;50.148;19.760;2023-03-23T11:21:20;26.60;37.40
21355;DHT22;10835;50.148;19.760;2023-03-23T11:23:50;26.80;36.80
21355;DHT22;10835;50.148;19.760;2023-03-23T11:26:22;26.60;35.80
21355;DHT22;10835;50.148;19.760;2023-03-23T11:28:55;26.40;36.20
21355;DHT22;10835;50.148;19.760;2023-03-23T11:31:27;26.10;35.70
21355;DHT22;10835;50.148;19.760;2023-03-23T11:33:57;26.10;37.40
21355;DHT22;10835;50.148;19.760;2023-03-23T11:36:31;26.30;36.10
21355;DHT22;10835;50.148;19.760;2023-03-23T11:38:59;26.00;36.30
21355;DHT22;10835;50.148;19.760;2023-03-23T11:41:37;25.80;36.30
21355;DHT22;10835;50.148;19.760;2023-03-23T11:44:10;25.80;36.60
21355;DHT22;10835;50.148;19.760;2023-03-23T11:46:45;25.60;37.40
21355;DHT22;10835;50.148;19.760;2023-03-23T11:49:22;25.40;37.00
21355;DHT22;10835;50.148;19.760;2023-03-23T11:51:55;25.60;37.00
21355;DHT22;10835;50.148;19.760;2023-03-23T11:54:30;25.70;36.80
21355;DHT22;10835;50.148;19.760;2023-03-23T11:56:59;25.50;36.90
21355;DHT22;10835;50.148;19.760;2023-03-23T11:59:29;25.40;37.00
21355;DHT22;10835;50.148;19.760;2023-03-23T12:02:15;25.10;37.40
21355;DHT22;10835;50.148;19.760;2023-03-23T12:05:10;25.10;37.30
21355;DHT22;10835;50.148;19.760;2023-03-23T12:07:48;25.00;37.80
21355;DHT22;10835;50.148;19.760;2023-03-23T12:10:25;24.90;37.40
21355;DHT22;10835;50.148;19.760;2023-03-23T12:13:03;24.60;37.50
21355;DHT22;10835;50.148;19.760;2023-03-23T12:15:41;24.30;38.70
21355;DHT22;10835;50.148;19.760;2023-03-23T12:18:17;23.90;38.50
21355;DHT22;10835;50.148;19.760;2023-03-23T12:20:55;23.70;39.30
21355;DHT22;10835;50.148;19.760;2023-03-23T12:23:25;23.80;39.40
21355;DHT22;10835;50.148;19.760;2023-03-23T12:26:06;23.90;39.90
21355;DHT22;10835;50.148;19.760;2023-03-23T12:28:49;24.30;39.10
21355;DHT22;10835;50.148;19.760;2023-03-23T12:31:23;24.50;39.10
21355;DHT22;10835;50.148;19.760;2023-03-23T12:33:57;24.70;38.10
21355;DHT22;10835;50.148;19.760;2023-03-23T12:36:42;24.50;39.10
21355;DHT22;10835;50.148;19.760;2023-03-23T12:39:35;24.50;39.40
21355;DHT22;10835;50.148;19.760;2023-03-23T12:42:12;24.40;39.40
21355;DHT22;10835;50.148;19.760;2023-03-23T12:44:46;24.50;39.40
21355;DHT22;10835;50.148;19.760;2023-03-23T12:47:35;24.40;39.30
21355;DHT22;10835;50.148;19.760;2023-03-23T12:50:10;24.40;39.60
21355;DHT22;10835;50.148;19.760;2023-03-23T12:52:46;24.70;39.70
21355;DHT22;10835;50.148;19.760;2023-03-23T12:55:19;25.10;39.60
21355;DHT22;10835;50.148;19.760;2023-03-23T12:57:52;25.40;38.30
21355;DHT22;10835;50.148;19.760;2023-03-23T13:00:25;24.90;39.00
21355;DHT22;10835;50.148;19.760;2023-03-23T13:02:59;24.80;39.60
21355;DHT22;10835;50.148;19.760;2023-03-23T13:05:34;25.20;39.40
21355;DHT22;10835;50.148;19.760;2023-03-23T13:08:07;25.40;39.30
21355;DHT22;10835;50.148;19.760;2023-03-23T13:10:40;25.80;39.20
21355;DHT22;10835;50.148;19.760;2023-03-23T13:13:14;25.60;38.90
21355;DHT22;10835;50.148;19.760;2023-03-23T13:15:50;25.20;39.20
21355;DHT22;10835;50.148;19.760;2023-03-23T13:18:27;25.30;39.60
21355;DHT22;10835;50.148;19.760;2023-03-23T13:21:05;25.20;39.50
21355;DHT22;10835;50.148;19.760;2023-03-23T13:23:39;25.00;39.60
21355;DHT22;10835;50.148;19.760;2023-03-23T13:26:09;25.00;39.50
21355;DHT22;10835;50.148;19.760;2023-03-23T13:28:53;24.70;39.50
21355;DHT22;10835;50.148;19.760;2023-03-23T13:31:23;24.50;40.50
21355;DHT22;10835;50.148;19.760;2023-03-23T13:34:05;24.90;40.10
21355;DHT22;10835;50.148;19.760;2023-03-23T13:36:36;25.00;40.00
21355;DHT22;10835;50.148;19.760;2023-03-23T13:39:05;25.20;39.80
21355;DHT22;10835;50.148;19.760;2023-03-23T13:41:46;25.30;39.80
21355;DHT22;10835;50.148;19.760;2023-03-23T13:44:25;25.50;39.50
21355;DHT22;10835;50.148;19.760;2023-03-23T13:47:07;25.40;39.10
21355;DHT22;10835;50.148;19.760;2023-03-23T13:49:46;25.30;39.50
21355;DHT22;10835;50.148;19.760;2023-03-23T13:52:23;25.20;39.40
21355;DHT22;10835;50.148;19.760;2023-03-23T13:54:52;25.60;40.00
21355;DHT22;10835;50.148;19.760;2023-03-23T13:57:37;26.10;39.00
21355;DHT22;10835;50.148;19.760;2023-03-23T14:00:33;26.10;38.90
21355;DHT22;10835;50.148;19.760;2023-03-23T14:03:12;25.70;38.60
21355;DHT22;10835;50.148;19.760;2023-03-23T14:05:42;25.40;39.00
21355;DHT22;10835;50.148;19.760;2023-03-23T14:08:22;25.50;39.40
21355;DHT22;10835;50.148;19.760;2023-03-23T14:10:53;25.70;39.20
21355;DHT22;10835;50.148;19.760;2023-03-23T14:13:25;25.70;39.00
21355;DHT22;10835;50.148;19.760;2023-03-23T14:15:58;25.60;39.40
21355;DHT22;10835;50.148;19.760;2023-03-23T14:18:30;26.10;39.00
21355;DHT22;10835;50.148;19.760;2023-03-23T14:21:00;26.30;38.50
21355;DHT22;10835;50.148;19.760;2023-03-23T14:23:31;26.40;38.00
21355;DHT22;10835;50.148;19.760;2023-03-23T14:26:00;26.20;38.50
21355;DHT22;10835;50.148;19.760;2023-03-23T14:28:39;26.10;38.10
21355;DHT22;10835;50.148;19.760;2023-03-23T14:31:15;26.20;38.60
21355;DHT22;10835;50.148;19.760;2023-03-23T14:33:44;26.40;37.80
21355;DHT22;10835;50.148;19.760;2023-03-23T14:36:20;26.10;37.80
21355;DHT22;10835;50.148;19.760;2023-03-23T14:38:49;26.10;38.20
21355;DHT22;10835;50.148;19.760;2023-03-23T14:41:22;26.10;38.00
21355;DHT22;10835;50.148;19.760;2023-03-23T14:43:50;25.90;38.30
21355;DHT22;10835;50.148;19.760;2023-03-23T14:46:17;26.10;38.20
21355;DHT22;10835;50.148;19.760;2023-03-23T14:48:45;26.90;38.10
21355;DHT22;10835;50.148;19.760;2023-03-23T14:51:18;27.00;37.70
21355;DHT22;10835;50.148;19.760;2023-03-23T14:53:47;27.50;37.70
21355;DHT22;10835;50.148;19.760;2023-03-23T14:56:18;27.40;37.30
21355;DHT22;10835;50.148;19.760;2023-03-23T14:58:46;27.60;37.50
21355;DHT22;10835;50.148;19.760;2023-03-23T15:01:16;27.30;37.40
21355;DHT22;10835;50.148;19.760;2023-03-23T15:03:57;27.40;37.50
21355;DHT22;10835;50.148;19.760;2023-03-23T15:06:29;27.60;37.30
21355;DHT22;10835;50.148;19.760;2023-03-23T15:09:01;27.60;37.20
21355;DHT22;10835;50.148;19.760;2023-03-23T15:11:31;27.50;37.00
21355;DHT22;10835;50.148;19.760;2023-03-23T15:14:09;28.30;37.00
21355;DHT22;10835;50.148;19.760;2023-03-23T15:16:36;28.50;36.00
21355;DHT22;10835;50.148;19.760;2023-03-23T15:19:13;28.60;36.00
21355;DHT22;10835;50.148;19.760;2023-03-23T15:21:52;28.90;35.60
21355;DHT22;10835;50.148;19.760;2023-03-23T15:24:25;28.80;35.60
21355;DHT22;10835;50.148;19.760;2023-03-23T15:26:53;29.50;36.50
21355;DHT22;10835;50.148;19.760;2023-03-23T15:29:21;29.90;35.00
21355;DHT22;10835;50.148;19.760;2023-03-23T15:31:50;30.20;34.80
21355;DHT22;10835;50.148;19.760;2023-03-23T15:34:29;30.10;34.60
21355;DHT22;10835;50.148;19.760;2023-03-23T15:37:02;30.50;34.20
21355;DHT22;10835;50.148;19.760;2023-03-23T15:39:32;30.60;34.50
21355;DHT22;10835;50.148;19.760;2023-03-23T15:42:00;30.60;34.50
21355;DHT22;10835;50.148;19.760;2023-03-23T15:44:30;30.80;33.50
21355;DHT22;10835;50.148;19.760;2023-03-23T15:47:14;30.90;34.00
21355;DHT22;10835;50.148;19.760;2023-03-23T15:49:43;30.60;33.40
21355;DHT22;10835;50.148;19.760;2023-03-23T15:52:13;30.70;33.40
21355;DHT22;10835;50.148;19.760;2023-03-23T15:54:47;30.80;34.00
21355;DHT22;10835;50.148;19.760;2023-03-23T15:57:15;30.80;33.50
21355;DHT22;10835;50.148;19.760;2023-03-23T15:59:42;30.50;33.40
21355;DHT22;10835;50.148;19.760;2023-03-23T16:02:17;30.50;34.10